createdAt,value
2023-05-13T00:00:12.498Z,164.72
2023-05-13T00:01:11.541Z,164.75
2023-05-13T00:02:11.633Z,166.96
2023-05-13T00:03:12.693Z,166.31
2023-05-13T00:04:12.665Z,164.93
2023-05-13T00:05:12.737Z,164.67
2023-05-13T00:06:12.897Z,164.81
2023-05-13T00:07:12.813Z,164.36
2023-05-13T00:08:12.898Z,164.18
2023-05-13T00:09:11.910Z,167.14
2023-05-13T00:10:11.984Z,163.42
2023-05-13T00:11:12.011Z,162.62
2023-05-13T00:12:13.107Z,164.95
2023-05-13T00:13:13.117Z,164.17
2023-05-13T00:14:12.274Z,165.42
2023-05-13T00:15:12.214Z,164.22
2023-05-13T00:16:12.314Z,165.96
2023-05-13T00:17:13.318Z,164.23
2023-05-13T00:18:13.391Z,167.57
2023-05-13T00:19:12.636Z,162.22
2023-05-13T00:20:13.472Z,163.16
2023-05-13T00:21:13.548Z,162.09
2023-05-13T00:22:13.571Z,164.14
2023-05-13T00:23:13.660Z,162.52
2023-05-13T00:24:12.705Z,165.92
2023-05-13T00:25:12.762Z,164.07
2023-05-13T00:26:12.863Z,164.91
2023-05-13T00:27:13.871Z,162.03
2023-05-13T00:28:12.949Z,159.02
2023-05-13T00:29:12.968Z,164.88
2023-05-13T00:30:13.179Z,162.60
2023-05-13T00:31:13.119Z,160.24
2023-05-13T00:32:14.133Z,164.63
2023-05-13T00:33:14.187Z,164.95
2023-05-13T00:34:14.235Z,161.75
2023-05-13T00:35:14.294Z,162.52
2023-05-13T00:36:14.368Z,162.48
2023-05-13T00:37:13.402Z,162.82
2023-05-13T00:38:14.490Z,162.75
2023-05-13T00:39:14.492Z,161.61
2023-05-13T00:40:14.548Z,161.66
2023-05-13T00:41:13.591Z,163.46
2023-05-13T00:42:14.636Z,160.78
2023-05-13T00:43:13.740Z,164.27
2023-05-13T00:44:14.789Z,163.20
2023-05-13T00:45:14.798Z,161.13
2023-05-13T00:46:14.911Z,159.90
2023-05-13T00:47:13.906Z,166.19
2023-05-13T00:48:14.956Z,163.21
2023-05-13T00:49:14.021Z,162.75
2023-05-13T00:50:14.061Z,163.76
2023-05-13T00:51:15.091Z,161.76
2023-05-13T00:52:14.149Z,159.18
2023-05-13T00:53:15.316Z,164.25
2023-05-13T00:54:15.280Z,160.77
2023-05-13T00:55:15.353Z,161.12
2023-05-13T00:56:15.390Z,163.22
2023-05-13T00:57:15.420Z,158.99
2023-05-13T00:58:14.570Z,161.84
2023-05-13T00:59:14.519Z,164.74
2023-05-13T01:00:14.622Z,159.89
2023-05-13T01:01:14.678Z,160.00
2023-05-13T01:02:15.685Z,162.91
2023-05-13T01:03:15.816Z,159.11
2023-05-13T01:04:15.769Z,158.16
2023-05-13T01:05:14.823Z,159.19
2023-05-13T01:06:14.879Z,159.26
2023-05-13T01:07:14.927Z,157.85
2023-05-13T01:08:14.985Z,161.56
2023-05-13T01:09:16.025Z,162.63
2023-05-13T01:10:15.063Z,162.63
2023-05-13T01:11:16.323Z,160.44
2023-05-13T01:12:16.181Z,161.81
2023-05-13T01:13:15.226Z,162.00
2023-05-13T01:14:16.284Z,160.68
2023-05-13T01:15:16.499Z,160.49
2023-05-13T01:16:15.439Z,160.36
2023-05-13T01:17:16.442Z,163.37
2023-05-13T01:18:16.517Z,159.61
2023-05-13T01:19:16.571Z,158.34
2023-05-13T01:20:15.605Z,159.58
2023-05-13T01:21:16.659Z,159.80
2023-05-13T01:22:16.718Z,158.87
2023-05-13T01:23:16.822Z,160.24
2023-05-13T01:24:15.855Z,157.90
2023-05-13T01:25:16.886Z,160.35
2023-05-13T01:26:15.953Z,160.56
2023-05-13T01:27:16.998Z,158.17
2023-05-13T01:28:17.070Z,160.60
2023-05-13T01:29:16.127Z,158.73
2023-05-13T01:30:17.217Z,159.19
2023-05-13T01:31:17.292Z,157.43
2023-05-13T01:32:16.292Z,154.80
2023-05-13T01:33:17.701Z,156.64
2023-05-13T01:34:17.391Z,155.32
2023-05-13T01:35:17.447Z,155.70
2023-05-13T01:36:17.477Z,156.91
2023-05-13T01:37:16.526Z,157.35
2023-05-13T01:38:17.604Z,157.86
2023-05-13T01:39:16.636Z,158.20
2023-05-13T01:40:30.909Z,157.37
2023-05-13T01:41:17.690Z,157.59
2023-05-13T01:42:16.660Z,158.12
2023-05-13T01:43:17.679Z,158.51
2023-05-13T01:44:17.659Z,158.43
2023-05-13T01:45:16.658Z,158.77
2023-05-13T01:46:16.709Z,156.80
2023-05-13T01:47:16.659Z,157.84
2023-05-13T01:48:16.621Z,158.78
2023-05-13T01:49:17.620Z,155.78
2023-05-13T01:50:16.604Z,159.07
2023-05-13T01:51:17.620Z,156.38
2023-05-13T01:52:17.629Z,156.81
2023-05-13T01:53:17.677Z,158.70
2023-05-13T01:54:16.739Z,157.45
2023-05-13T01:55:16.790Z,157.48
2023-05-13T01:56:17.874Z,157.42
2023-05-13T01:57:17.915Z,157.47
2023-05-13T01:58:17.980Z,153.88
2023-05-13T01:59:16.997Z,160.07
2023-05-13T02:00:17.062Z,158.45
2023-05-13T02:01:19.000Z,156.93
2023-05-13T02:02:18.208Z,159.20
2023-05-13T02:03:18.193Z,159.88
2023-05-13T02:04:17.110Z,158.81
2023-05-13T02:05:18.095Z,157.26
2023-05-13T02:06:17.074Z,155.18
2023-05-13T02:07:17.079Z,156.81
2023-05-13T02:08:17.068Z,158.06
2023-05-13T02:09:17.073Z,156.59
2023-05-13T02:10:18.058Z,157.23
2023-05-13T02:11:18.061Z,154.62
2023-05-13T02:12:17.045Z,155.30
2023-05-13T02:13:18.028Z,155.13
2023-05-13T02:14:18.040Z,155.53
2023-05-13T02:15:17.065Z,153.74
2023-05-13T02:16:18.093Z,157.42
2023-05-13T02:17:18.014Z,153.84
2023-05-13T02:18:18.013Z,152.72
2023-05-13T02:19:18.107Z,153.69
2023-05-13T02:20:18.115Z,152.96
2023-05-13T02:21:18.008Z,155.37
2023-05-13T02:22:16.989Z,153.47
2023-05-13T02:23:17.976Z,152.38
2023-05-13T02:24:17.969Z,153.88
2023-05-13T02:25:17.964Z,152.23
2023-05-13T02:26:18.018Z,153.81
2023-05-13T02:27:18.074Z,151.76
2023-05-13T02:28:17.160Z,154.48
2023-05-13T02:29:17.200Z,153.24
2023-05-13T02:30:18.256Z,155.95
2023-05-13T02:31:18.316Z,156.14
2023-05-13T02:32:17.409Z,154.17
2023-05-13T02:33:17.433Z,152.35
2023-05-13T02:34:18.484Z,154.64
2023-05-13T02:35:18.581Z,153.70
2023-05-13T02:36:18.579Z,155.77
2023-05-13T02:37:18.637Z,153.25
2023-05-13T02:38:17.711Z,154.46
2023-05-13T02:39:18.751Z,150.99
2023-05-13T02:40:17.818Z,153.87
2023-05-13T02:41:18.878Z,155.12
2023-05-13T02:42:17.925Z,153.51
2023-05-13T02:43:18.999Z,151.14
2023-05-13T02:44:19.069Z,154.65
2023-05-13T02:45:19.101Z,151.10
2023-05-13T02:46:19.193Z,152.20
2023-05-13T02:47:19.528Z,152.59
2023-05-13T02:48:19.277Z,151.80
2023-05-13T02:49:18.352Z,151.67
2023-05-13T02:50:19.585Z,153.56
2023-05-13T02:51:19.547Z,151.20
2023-05-13T02:52:18.562Z,149.20
2023-05-13T02:53:19.601Z,150.73
2023-05-13T02:54:18.655Z,150.25
2023-05-13T02:55:18.746Z,152.57
2023-05-13T02:56:19.798Z,151.71
2023-05-13T02:57:19.828Z,152.75
2023-05-13T02:58:19.912Z,150.52
2023-05-13T02:59:18.979Z,153.60
2023-05-13T03:00:20.269Z,150.47
2023-05-13T03:01:20.215Z,153.36
2023-05-13T03:02:20.213Z,150.17
2023-05-13T03:03:20.358Z,151.68
2023-05-13T03:04:20.267Z,150.18
2023-05-13T03:05:20.349Z,150.80
2023-05-13T03:06:20.392Z,150.80
2023-05-13T03:07:20.488Z,150.02
2023-05-13T03:08:20.529Z,150.83
2023-05-13T03:09:19.586Z,150.29
2023-05-13T03:10:20.831Z,153.41
2023-05-13T03:11:20.719Z,150.52
2023-05-13T03:12:19.777Z,147.85
2023-05-13T03:13:21.340Z,151.99
2023-05-13T03:14:20.913Z,150.10
2023-05-13T03:15:19.983Z,152.58
2023-05-13T03:16:20.154Z,152.02
2023-05-13T03:17:20.151Z,149.03
2023-05-13T03:18:21.169Z,148.83
2023-05-13T03:19:20.213Z,150.19
2023-05-13T03:20:21.492Z,149.48
2023-05-13T03:21:21.358Z,150.82
2023-05-13T03:22:21.435Z,152.37
2023-05-13T03:23:21.515Z,149.29
2023-05-13T03:24:20.571Z,147.99
2023-05-13T03:25:20.607Z,151.86
2023-05-13T03:26:21.659Z,150.29
2023-05-13T03:27:21.748Z,148.79
2023-05-13T03:28:20.803Z,148.67
2023-05-13T03:29:21.878Z,147.62
2023-05-13T03:30:22.154Z,149.96
2023-05-13T03:31:22.048Z,149.19
2023-05-13T03:32:21.082Z,149.02
2023-05-13T03:33:21.123Z,151.13
2023-05-13T03:34:21.263Z,147.52
2023-05-13T03:35:22.254Z,147.29
2023-05-13T03:36:22.319Z,149.44
2023-05-13T03:37:21.373Z,148.73
2023-05-13T03:38:22.454Z,148.49
2023-05-13T03:39:22.546Z,148.47
2023-05-13T03:40:21.789Z,150.77
2023-05-13T03:41:21.640Z,149.35
2023-05-13T03:42:22.616Z,148.18
2023-05-13T03:43:22.611Z,148.13
2023-05-13T03:44:21.608Z,146.73
2023-05-13T03:45:21.612Z,147.61
2023-05-13T03:46:21.629Z,148.09
2023-05-13T03:47:21.618Z,147.70
2023-05-13T03:48:21.618Z,144.31
2023-05-13T03:49:21.600Z,147.68
2023-05-13T03:50:21.796Z,147.47
2023-05-13T03:51:22.582Z,145.97
2023-05-13T03:52:22.584Z,148.90
2023-05-13T03:53:21.590Z,143.83
2023-05-13T03:54:21.588Z,144.20
2023-05-13T03:55:22.596Z,144.64
2023-05-13T03:56:21.617Z,148.45
2023-05-13T03:57:21.571Z,145.50
2023-05-13T03:58:21.571Z,148.76
2023-05-13T03:59:21.562Z,146.71
2023-05-13T04:00:22.864Z,146.75
2023-05-13T04:01:22.557Z,147.30
2023-05-13T04:02:21.740Z,143.79
2023-05-13T04:03:22.663Z,143.86
2023-05-13T04:04:21.725Z,145.29
2023-05-13T04:05:22.761Z,145.62
2023-05-13T04:06:21.737Z,143.21
2023-05-13T04:07:21.763Z,145.97
2023-05-13T04:08:22.784Z,144.61
2023-05-13T04:09:22.813Z,146.16
2023-05-13T04:10:22.035Z,144.80
2023-05-13T04:11:21.887Z,146.36
2023-05-13T04:12:21.905Z,143.65
2023-05-13T04:13:22.935Z,144.48
2023-05-13T04:14:21.974Z,144.14
2023-05-13T04:15:22.005Z,146.67
2023-05-13T04:16:23.064Z,144.60
2023-05-13T04:17:23.070Z,146.10
2023-05-13T04:18:23.108Z,141.95
2023-05-13T04:19:23.118Z,142.34
2023-05-13T04:20:23.350Z,145.34
2023-05-13T04:21:22.137Z,144.16
2023-05-13T04:22:22.164Z,141.42
2023-05-13T04:23:22.213Z,144.34
2023-05-13T04:24:22.207Z,143.79
2023-05-13T04:25:23.265Z,143.60
2023-05-13T04:26:22.265Z,143.96
2023-05-13T04:27:22.345Z,143.17
2023-05-13T04:28:22.419Z,140.34
2023-05-13T04:29:23.441Z,144.30
2023-05-13T04:30:23.646Z,143.85
2023-05-13T04:31:23.615Z,142.35
2023-05-13T04:32:23.719Z,144.27
2023-05-13T04:33:23.727Z,145.56
2023-05-13T04:34:22.743Z,142.86
2023-05-13T04:35:22.817Z,142.45
2023-05-13T04:36:23.870Z,141.89
2023-05-13T04:37:22.933Z,141.58
2023-05-13T04:38:24.027Z,141.31
2023-05-13T04:39:23.051Z,144.92
2023-05-13T04:40:23.328Z,142.25
2023-05-13T04:41:23.169Z,141.26
2023-05-13T04:42:23.259Z,144.75
2023-05-13T04:43:23.365Z,143.00
2023-05-13T04:44:23.402Z,142.33
2023-05-13T04:45:24.439Z,143.37
2023-05-13T04:46:23.584Z,141.19
2023-05-13T04:47:24.652Z,139.38
2023-05-13T04:48:24.597Z,143.22
2023-05-13T04:49:23.637Z,140.82
2023-05-13T04:50:23.662Z,142.54
2023-05-13T04:51:23.743Z,140.11
2023-05-13T04:52:24.781Z,142.91
2023-05-13T04:53:24.839Z,139.93
2023-05-13T04:54:24.874Z,141.15
2023-05-13T04:55:26.726Z,142.79
2023-05-13T04:56:24.901Z,143.10
2023-05-13T04:57:24.901Z,145.34
2023-05-13T04:58:24.936Z,142.64
2023-05-13T04:59:23.912Z,141.74
2023-05-13T05:00:23.999Z,141.53
2023-05-13T05:01:23.895Z,140.21
2023-05-13T05:02:24.906Z,140.35
2023-05-13T05:03:24.911Z,137.56
2023-05-13T05:04:24.873Z,141.21
2023-05-13T05:05:23.869Z,140.19
2023-05-13T05:06:24.903Z,141.82
2023-05-13T05:07:24.847Z,138.41
2023-05-13T05:08:24.848Z,138.97
2023-05-13T05:09:23.823Z,139.89
2023-05-13T05:10:23.920Z,141.12
2023-05-13T05:11:23.809Z,139.53
2023-05-13T05:12:24.824Z,138.65
2023-05-13T05:13:24.819Z,140.77
2023-05-13T05:14:24.822Z,138.95
2023-05-13T05:15:24.807Z,139.31
2023-05-13T05:16:23.782Z,141.65
2023-05-13T05:17:24.878Z,141.62
2023-05-13T05:18:24.928Z,137.97
2023-05-13T05:19:23.983Z,138.57
2023-05-13T05:20:24.771Z,140.68
2023-05-13T05:21:24.771Z,135.89
2023-05-13T05:22:24.743Z,140.06
2023-05-13T05:23:24.810Z,138.92
2023-05-13T05:24:23.736Z,136.18
2023-05-13T05:25:24.734Z,137.81
2023-05-13T05:26:23.718Z,135.77
2023-05-13T05:27:24.769Z,138.82
2023-05-13T05:28:24.869Z,140.01
2023-05-13T05:29:24.856Z,138.62
2023-05-13T05:30:24.118Z,138.57
2023-05-13T05:31:23.995Z,138.06
2023-05-13T05:32:23.946Z,139.68
2023-05-13T05:33:24.967Z,138.49
2023-05-13T05:34:24.979Z,137.50
2023-05-13T05:35:23.992Z,140.26
2023-05-13T05:36:24.039Z,140.16
2023-05-13T05:37:25.054Z,140.44
2023-05-13T05:38:25.373Z,135.61
2023-05-13T05:39:25.040Z,139.49
2023-05-13T05:40:25.133Z,137.56
2023-05-13T05:41:24.089Z,133.75
2023-05-13T05:42:25.107Z,136.80
2023-05-13T05:43:24.135Z,138.45
2023-05-13T05:44:25.179Z,138.07
2023-05-13T05:45:25.228Z,134.42
2023-05-13T05:46:24.314Z,140.88
2023-05-13T05:47:25.304Z,137.31
2023-05-13T05:48:24.277Z,140.20
2023-05-13T05:49:25.322Z,137.67
2023-05-13T05:50:25.351Z,135.09
2023-05-13T05:51:24.379Z,134.14
2023-05-13T05:52:25.388Z,133.84
2023-05-13T05:53:24.419Z,133.90
2023-05-13T05:54:25.434Z,135.53
2023-05-13T05:55:25.467Z,135.22
2023-05-13T05:56:25.515Z,138.65
2023-05-13T05:57:25.552Z,134.65
2023-05-13T05:58:25.586Z,137.24
2023-05-13T05:59:24.635Z,136.89
2023-05-13T06:00:24.658Z,137.58
2023-05-13T06:01:25.684Z,137.97
2023-05-13T06:02:25.768Z,134.66
2023-05-13T06:03:25.938Z,135.28
2023-05-13T06:04:24.882Z,133.29
2023-05-13T06:05:25.860Z,133.89
2023-05-13T06:06:25.933Z,138.33
2023-05-13T06:07:25.918Z,133.96
2023-05-13T06:08:25.953Z,134.35
2023-05-13T06:09:25.983Z,133.74
2023-05-13T06:10:26.000Z,132.66
2023-05-13T06:11:26.038Z,136.11
2023-05-13T06:12:25.042Z,136.17
2023-05-13T06:13:26.070Z,134.78
2023-05-13T06:14:26.084Z,131.96
2023-05-13T06:15:26.091Z,131.80
2023-05-13T06:16:26.227Z,133.87
2023-05-13T06:17:26.127Z,136.25
2023-05-13T06:18:26.188Z,133.84
2023-05-13T06:19:25.184Z,136.08
2023-05-13T06:20:25.148Z,134.69
2023-05-13T06:21:26.150Z,135.37
2023-05-13T06:22:25.148Z,138.56
2023-05-13T06:23:25.150Z,136.79
2023-05-13T06:24:25.133Z,135.16
2023-05-13T06:25:25.130Z,133.37
2023-05-13T06:26:25.128Z,134.98
2023-05-13T06:27:25.127Z,131.27
2023-05-13T06:28:25.129Z,132.88
2023-05-13T06:29:25.124Z,136.64
2023-05-13T06:30:26.115Z,134.76
2023-05-13T06:31:26.115Z,137.56
2023-05-13T06:32:25.155Z,134.04
2023-05-13T06:33:25.169Z,133.25
2023-05-13T06:34:26.098Z,134.05
2023-05-13T06:35:26.115Z,134.01
2023-05-13T06:36:26.121Z,133.92
2023-05-13T06:37:25.120Z,133.52
2023-05-13T06:38:26.102Z,134.85
2023-05-13T06:39:26.099Z,134.74
2023-05-13T06:40:26.118Z,134.49
2023-05-13T06:41:26.091Z,132.50
2023-05-13T06:42:25.093Z,133.18
2023-05-13T06:43:26.091Z,136.14
2023-05-13T06:44:26.081Z,135.11
2023-05-13T06:45:26.079Z,132.40
2023-05-13T06:46:26.103Z,131.28
2023-05-13T06:47:26.133Z,133.63
2023-05-13T06:48:25.260Z,132.33
2023-05-13T06:49:26.122Z,131.58
2023-05-13T06:50:25.235Z,134.90
2023-05-13T06:51:26.143Z,137.10
2023-05-13T06:52:26.112Z,134.19
2023-05-13T06:53:25.103Z,134.60
2023-05-13T06:54:25.124Z,131.92
2023-05-13T06:55:26.119Z,131.07
2023-05-13T06:56:25.092Z,132.55
2023-05-13T06:57:32.285Z,135.06
2023-05-13T06:58:26.106Z,135.25
2023-05-13T06:59:26.101Z,134.72
2023-05-13T07:00:26.089Z,132.09
2023-05-13T07:01:25.122Z,133.63
2023-05-13T07:02:25.089Z,133.78
2023-05-13T07:03:26.073Z,134.23
2023-05-13T07:04:26.132Z,131.69
2023-05-13T07:05:25.043Z,132.24
2023-05-13T07:06:26.060Z,131.80
2023-05-13T07:07:26.068Z,129.44
2023-05-13T07:08:25.027Z,130.84
2023-05-13T07:09:26.026Z,130.78
2023-05-13T07:10:26.022Z,130.94
2023-05-13T07:11:26.003Z,130.02
2023-05-13T07:12:25.020Z,129.18
2023-05-13T07:13:26.002Z,132.23
2023-05-13T07:14:26.015Z,130.73
2023-05-13T07:15:25.969Z,129.91
2023-05-13T07:16:24.966Z,132.66
2023-05-13T07:17:25.012Z,130.94
2023-05-13T07:18:26.072Z,128.22
2023-05-13T07:19:26.029Z,132.13
2023-05-13T07:20:25.991Z,131.19
2023-05-13T07:21:25.925Z,130.35
2023-05-13T07:22:25.933Z,132.78
2023-05-13T07:23:24.942Z,134.45
2023-05-13T07:24:25.912Z,129.95
2023-05-13T07:25:24.899Z,133.89
2023-05-13T07:26:25.907Z,129.21
2023-05-13T07:27:25.908Z,131.46
2023-05-13T07:28:24.927Z,130.40
2023-05-13T07:29:25.974Z,133.24
2023-05-13T07:30:26.136Z,130.35
2023-05-13T07:31:26.255Z,134.23
2023-05-13T07:32:26.183Z,135.25
2023-05-13T07:33:25.165Z,132.14
2023-05-13T07:34:26.198Z,128.02
2023-05-13T07:35:26.224Z,131.86
2023-05-13T07:36:26.244Z,128.49
2023-05-13T07:37:25.271Z,133.41
2023-05-13T07:38:25.298Z,128.68
2023-05-13T07:39:25.357Z,130.23
2023-05-13T07:40:25.378Z,128.85
2023-05-13T07:41:26.358Z,130.44
2023-05-13T07:42:26.372Z,129.03
2023-05-13T07:43:26.390Z,129.78
2023-05-13T07:44:26.445Z,132.04
2023-05-13T07:45:25.438Z,133.94
2023-05-13T07:46:26.501Z,127.88
2023-05-13T07:47:26.490Z,128.12
2023-05-13T07:48:25.487Z,126.89
2023-05-13T07:49:25.499Z,126.82
2023-05-13T07:50:26.522Z,128.60
2023-05-13T07:51:26.566Z,129.59
2023-05-13T07:52:25.588Z,128.03
2023-05-13T07:53:25.552Z,130.47
2023-05-13T07:54:26.555Z,129.94
2023-05-13T07:55:25.572Z,131.02
2023-05-13T07:56:26.543Z,127.92
2023-05-13T07:57:26.553Z,129.73
2023-05-13T07:58:26.552Z,130.57
2023-05-13T07:59:25.650Z,128.32
2023-05-13T08:00:26.563Z,128.54
2023-05-13T08:01:25.570Z,129.04
2023-05-13T08:02:25.576Z,128.81
2023-05-13T08:03:25.656Z,133.53
2023-05-13T08:04:26.676Z,131.33
2023-05-13T08:05:26.585Z,128.56
2023-05-13T08:06:26.621Z,131.23
2023-05-13T08:07:26.684Z,130.87
2023-05-13T08:08:26.729Z,128.68
2023-05-13T08:09:26.797Z,128.20
2023-05-13T08:10:25.832Z,125.64
2023-05-13T08:11:25.933Z,132.10
2023-05-13T08:12:25.951Z,127.62
2023-05-13T08:13:27.049Z,131.83
2023-05-13T08:14:27.102Z,128.61
2023-05-13T08:15:27.163Z,131.40
2023-05-13T08:16:26.225Z,133.85
2023-05-13T08:17:27.363Z,129.96
2023-05-13T08:18:26.388Z,131.54
2023-05-13T08:19:27.421Z,128.83
2023-05-13T08:20:27.449Z,127.73
2023-05-13T08:21:27.517Z,129.84
2023-05-13T08:22:26.563Z,128.49
2023-05-13T08:23:43.363Z,128.89
2023-05-13T08:24:27.644Z,129.28
2023-05-13T08:25:26.600Z,130.29
2023-05-13T08:26:27.636Z,131.94
2023-05-13T08:27:26.608Z,130.24
2023-05-13T08:28:27.586Z,133.08
2023-05-13T08:29:26.567Z,130.83
2023-05-13T08:30:27.589Z,130.79
2023-05-13T08:31:27.618Z,130.28
2023-05-13T08:32:26.583Z,130.62
2023-05-13T08:33:26.607Z,131.32
2023-05-13T08:34:27.533Z,128.78
2023-05-13T08:35:27.552Z,131.04
2023-05-13T08:36:27.532Z,128.31
2023-05-13T08:37:27.557Z,130.03
2023-05-13T08:38:27.547Z,128.79
2023-05-13T08:39:27.525Z,130.70
2023-05-13T08:40:26.517Z,126.58
2023-05-13T08:41:26.508Z,130.12
2023-05-13T08:42:26.487Z,131.09
2023-05-13T08:43:27.534Z,127.33
2023-05-13T08:44:26.487Z,132.11
2023-05-13T08:45:27.476Z,126.24
2023-05-13T08:46:26.546Z,128.68
2023-05-13T08:47:26.470Z,129.49
2023-05-13T08:48:27.527Z,132.50
2023-05-13T08:49:27.583Z,127.08
2023-05-13T08:50:27.646Z,129.27
2023-05-13T08:51:26.688Z,128.08
2023-05-13T08:52:26.754Z,129.20
2023-05-13T08:53:26.830Z,129.54
2023-05-13T08:54:27.877Z,126.48
2023-05-13T08:55:27.936Z,127.67
2023-05-13T08:56:28.019Z,129.83
2023-05-13T08:57:27.058Z,128.99
2023-05-13T08:58:28.158Z,127.47
2023-05-13T08:59:28.211Z,128.84
2023-05-13T09:00:28.240Z,129.08
2023-05-13T09:01:28.333Z,127.49
2023-05-13T09:02:27.400Z,126.89
2023-05-13T09:03:28.434Z,127.52
2023-05-13T09:04:28.550Z,127.80
2023-05-13T09:05:28.788Z,131.19
2023-05-13T09:06:27.619Z,128.69
2023-05-13T09:07:27.685Z,131.02
2023-05-13T09:08:28.758Z,129.10
2023-05-13T09:09:27.830Z,128.11
2023-05-13T09:10:28.873Z,129.24
2023-05-13T09:11:28.939Z,128.85
2023-05-13T09:12:27.990Z,128.56
2023-05-13T09:13:28.057Z,127.03
2023-05-13T09:14:29.125Z,127.82
2023-05-13T09:15:28.221Z,127.95
2023-05-13T09:16:28.336Z,128.41
2023-05-13T09:17:28.314Z,127.51
2023-05-13T09:18:29.504Z,126.92
2023-05-13T09:19:28.610Z,129.13
2023-05-13T09:20:29.499Z,128.58
2023-05-13T09:21:29.599Z,130.87
2023-05-13T09:22:29.625Z,128.12
2023-05-13T09:23:29.681Z,127.09
2023-05-13T09:24:29.742Z,130.86
2023-05-13T09:25:29.832Z,127.62
2023-05-13T09:26:29.870Z,130.00
2023-05-13T09:27:28.932Z,130.19
2023-05-13T09:28:29.994Z,127.77
2023-05-13T09:29:30.231Z,127.62
2023-05-13T09:30:30.154Z,130.98
2023-05-13T09:31:29.193Z,128.79
2023-05-13T09:32:30.221Z,124.99
2023-05-13T09:33:29.246Z,126.83
2023-05-13T09:34:30.290Z,125.06
2023-05-13T09:35:29.364Z,130.83
2023-05-13T09:36:30.411Z,128.68
2023-05-13T09:37:29.461Z,126.56
2023-05-13T09:38:30.515Z,127.66
2023-05-13T09:39:32.908Z,130.20
2023-05-13T09:40:29.582Z,129.19
2023-05-13T09:41:30.571Z,130.38
2023-05-13T09:42:30.549Z,129.83
2023-05-13T09:43:30.540Z,130.63
2023-05-13T09:44:29.566Z,127.93
2023-05-13T09:45:30.531Z,128.55
2023-05-13T09:46:30.636Z,131.81
2023-05-13T09:47:30.549Z,128.61
2023-05-13T09:48:30.531Z,129.10
2023-05-13T09:49:30.508Z,128.30
2023-05-13T09:50:29.567Z,130.70
2023-05-13T09:51:31.027Z,128.19
2023-05-13T09:52:29.488Z,127.07
2023-05-13T09:53:30.492Z,129.79
2023-05-13T09:54:31.957Z,128.22
2023-05-13T09:55:29.478Z,128.38
2023-05-13T09:56:30.469Z,129.10
2023-05-13T09:57:30.464Z,129.87
2023-05-13T09:58:30.450Z,130.45
2023-05-13T09:59:30.470Z,130.75
2023-05-13T10:00:33.190Z,129.95
2023-05-13T10:01:30.521Z,130.17
2023-05-13T10:02:30.475Z,130.27
2023-05-13T10:03:29.472Z,130.74
2023-05-13T10:04:29.410Z,130.80
2023-05-13T10:05:29.413Z,132.85
2023-05-13T10:06:30.414Z,133.83
2023-05-13T10:07:29.406Z,132.11
2023-05-13T10:08:30.402Z,129.62
2023-05-13T10:09:29.392Z,131.81
2023-05-13T10:10:30.425Z,132.65
2023-05-13T10:11:30.384Z,127.10
2023-05-13T10:12:30.375Z,129.42
2023-05-13T10:13:30.370Z,131.88
2023-05-13T10:14:29.373Z,128.48
2023-05-13T10:15:30.394Z,131.52
2023-05-13T10:16:29.402Z,130.21
2023-05-13T10:17:30.383Z,128.22
2023-05-13T10:18:29.479Z,127.85
2023-05-13T10:19:29.330Z,129.57
2023-05-13T10:20:30.335Z,129.35
2023-05-13T10:21:30.323Z,128.39
2023-05-13T10:22:30.316Z,130.30
2023-05-13T10:23:29.350Z,130.84
2023-05-13T10:24:29.333Z,129.86
2023-05-13T10:25:30.315Z,132.85
2023-05-13T10:26:30.292Z,132.35
2023-05-13T10:27:29.304Z,129.15
2023-05-13T10:28:30.284Z,130.38
2023-05-13T10:29:30.264Z,129.15
2023-05-13T10:30:30.248Z,128.71
2023-05-13T10:31:29.307Z,130.35
2023-05-13T10:32:29.275Z,129.97
2023-05-13T10:33:30.227Z,132.87
2023-05-13T10:34:30.259Z,129.40
2023-05-13T10:35:30.213Z,127.93
2023-05-13T10:36:30.218Z,129.41
2023-05-13T10:37:30.204Z,130.50
2023-05-13T10:38:30.212Z,130.31
2023-05-13T10:39:30.212Z,130.08
2023-05-13T10:40:30.226Z,129.04
2023-05-13T10:41:30.278Z,128.42
2023-05-13T10:42:30.294Z,129.57
2023-05-13T10:43:29.332Z,129.82
2023-05-13T10:44:29.342Z,128.14
2023-05-13T10:45:29.373Z,131.09
2023-05-13T10:46:30.423Z,128.70
2023-05-13T10:47:30.501Z,129.11
2023-05-13T10:48:30.533Z,132.51
2023-05-13T10:49:30.484Z,130.32
2023-05-13T10:50:30.556Z,132.85
2023-05-13T10:51:30.564Z,130.54
2023-05-13T10:52:30.624Z,130.66
2023-05-13T10:53:30.633Z,130.72
2023-05-13T10:54:29.711Z,128.61
2023-05-13T10:55:29.730Z,129.49
2023-05-13T10:56:30.738Z,130.01
2023-05-13T10:57:29.759Z,128.82
2023-05-13T10:58:30.835Z,131.08
2023-05-13T10:59:29.849Z,130.51
2023-05-13T11:00:30.932Z,128.31
2023-05-13T11:01:30.099Z,130.53
2023-05-13T11:02:31.015Z,127.93
2023-05-13T11:03:30.117Z,132.44
2023-05-13T11:04:31.047Z,129.82
2023-05-13T11:05:31.094Z,132.05
2023-05-13T11:06:31.123Z,127.09
2023-05-13T11:07:30.142Z,130.67
2023-05-13T11:08:30.144Z,129.46
2023-05-13T11:09:30.168Z,129.48
2023-05-13T11:10:30.199Z,129.64
2023-05-13T11:11:31.237Z,128.75
2023-05-13T11:12:30.260Z,133.40
2023-05-13T11:13:31.270Z,126.80
2023-05-13T11:14:31.345Z,129.36
2023-05-13T11:15:30.320Z,131.96
2023-05-13T11:16:31.403Z,129.95
2023-05-13T11:17:30.421Z,129.71
2023-05-13T11:18:30.469Z,129.65
2023-05-13T11:19:31.457Z,125.99
2023-05-13T11:20:33.721Z,129.42
2023-05-13T11:21:31.506Z,129.62
2023-05-13T11:22:30.488Z,129.93
2023-05-13T11:23:31.468Z,129.96
2023-05-13T11:24:31.449Z,129.48
2023-05-13T11:25:30.442Z,130.67
2023-05-13T11:26:30.425Z,128.81
2023-05-13T11:27:31.425Z,130.07
2023-05-13T11:28:30.421Z,128.25
2023-05-13T11:29:31.420Z,129.65
2023-05-13T11:30:30.412Z,128.94
2023-05-13T11:31:31.820Z,127.76
2023-05-13T11:32:30.423Z,128.31
2023-05-13T11:33:30.408Z,130.15
2023-05-13T11:34:30.408Z,129.78
2023-05-13T11:35:30.421Z,131.11
2023-05-13T11:36:30.397Z,124.92
2023-05-13T11:37:31.411Z,129.74
2023-05-13T11:38:30.538Z,128.45
2023-05-13T11:39:30.477Z,129.77
2023-05-13T11:40:31.512Z,127.49
2023-05-13T11:41:30.551Z,128.01
2023-05-13T11:42:30.611Z,127.66
2023-05-13T11:43:31.896Z,125.73
2023-05-13T11:44:31.633Z,128.47
2023-05-13T11:45:30.815Z,129.91
2023-05-13T11:46:31.777Z,127.90
2023-05-13T11:47:31.720Z,130.31
2023-05-13T11:48:31.754Z,128.65
2023-05-13T11:49:30.766Z,127.39
2023-05-13T11:50:31.779Z,126.55
2023-05-13T11:51:30.809Z,129.28
2023-05-13T11:52:30.831Z,127.06
2023-05-13T11:53:30.866Z,130.12
2023-05-13T11:54:30.916Z,128.77
2023-05-13T11:55:31.928Z,129.96
2023-05-13T11:56:31.973Z,130.06
2023-05-13T11:57:31.997Z,127.90
2023-05-13T11:58:31.141Z,127.74
2023-05-13T11:59:38.628Z,127.29
2023-05-13T12:00:32.034Z,127.46
2023-05-13T12:01:32.051Z,127.85
2023-05-13T12:02:32.156Z,127.72
2023-05-13T12:03:32.017Z,128.00
2023-05-13T12:04:32.094Z,129.66
2023-05-13T12:05:32.007Z,129.21
2023-05-13T12:06:30.988Z,127.03
2023-05-13T12:07:31.999Z,126.84
2023-05-13T12:08:31.014Z,127.85
2023-05-13T12:09:31.965Z,130.53
2023-05-13T12:10:31.006Z,129.81
2023-05-13T12:11:30.971Z,126.99
2023-05-13T12:12:31.972Z,129.11
2023-05-13T12:13:30.953Z,129.38
2023-05-13T12:14:31.936Z,128.23
2023-05-13T12:15:31.950Z,129.85
2023-05-13T12:16:30.990Z,129.71
2023-05-13T12:17:30.974Z,125.42
2023-05-13T12:18:30.988Z,130.33
2023-05-13T12:19:31.911Z,128.81
2023-05-13T12:20:31.903Z,127.38
2023-05-13T12:21:30.931Z,127.11
2023-05-13T12:22:31.938Z,127.89
2023-05-13T12:23:31.984Z,128.24
2023-05-13T12:24:31.002Z,128.16
2023-05-13T12:25:31.011Z,127.24
2023-05-13T12:26:31.088Z,126.96
2023-05-13T12:27:31.067Z,128.72
2023-05-13T12:28:31.103Z,125.59